Time;durP1;ratioP1;P1;durP2;ratioP2;P2;SDS_P1;SDS_P2;PMS_P1;PMS_P2;Temp;Humidity;BMP_temperature;BMP_pressure;BME280_temperature;BME280_humidity;BME280_pressure;Samples;Min_cycle;Max_cycle;Signal;HPM_P1;HPM_P2
2024/01/11 00:00:30;;;;;;;19.23;8.95;;;-3271.30;97.20;;;;;;4993157;28;20041;-69
2024/01/11 00:02:55;;;;;;;18.73;8.93;;;-3271.30;97.20;;;;;;5000834;28;20030;-69
2024/01/11 00:05:21;;;;;;;19.58;7.95;;;-3271.30;97.10;;;;;;4993456;28;20107;-69
2024/01/11 00:07:46;;;;;;;23.23;8.20;;;-3271.30;97.10;;;;;;4999509;28;20066;-68
2024/01/11 00:10:12;;;;;;;16.15;7.07;;;-3271.30;97.00;;;;;;4978986;28;20034;-69
2024/01/11 00:12:37;;;;;;;22.10;7.55;;;-3271.30;97.00;;;;;;4998371;28;20504;-69
2024/01/11 00:15:03;;;;;;;20.23;8.07;;;-3271.30;97.00;;;;;;4991838;28;20408;-68
2024/01/11 00:17:29;;;;;;;18.15;7.05;;;-3271.30;97.00;;;;;;4994537;28;20458;-69
2024/01/11 00:19:54;;;;;;;22.50;9.73;;;-3271.40;97.10;;;;;;4993375;28;20044;-68
2024/01/11 00:22:20;;;;;;;18.85;7.75;;;-3271.40;97.10;;;;;;4996666;28;20041;-69
2024/01/11 00:24:45;;;;;;;16.83;7.28;;;-3271.40;97.10;;;;;;4995850;28;20035;-69
2024/01/11 00:27:10;;;;;;;24.77;9.00;;;-3271.40;97.10;;;;;;5001831;28;20378;-69
2024/01/11 00:29:36;;;;;;;18.75;8.18;;;-3271.40;97.00;;;;;;4996896;28;20088;-69
2024/01/11 00:32:02;;;;;;;23.38;9.05;;;-3271.40;97.20;;;;;;4998948;28;20362;-69
2024/01/11 00:34:27;;;;;;;22.17;9.32;;;-3271.40;97.20;;;;;;4998214;28;20112;-69
2024/01/11 00:36:53;;;;;;;19.88;8.35;;;-3271.40;97.30;;;;;;4998629;28;20143;-69
2024/01/11 00:39:18;;;;;;;23.13;9.50;;;-3271.40;97.20;;;;;;4989980;28;20110;-69
2024/01/11 00:41:44;;;;;;;21.90;8.32;;;-3271.50;97.50;;;;;;4995722;28;20189;-69
2024/01/11 00:44:09;;;;;;;26.73;9.48;;;-3271.60;97.40;;;;;;4990823;28;20454;-69
2024/01/11 00:46:35;;;;;;;19.67;8.25;;;-3271.60;97.40;;;;;;4996707;28;20122;-69
2024/01/11 00:49:00;;;;;;;21.98;8.85;;;-3271.60;97.40;;;;;;4995028;28;20111;-68
2024/01/11 00:51:26;;;;;;;22.63;8.13;;;-3271.60;97.50;;;;;;4996328;28;20037;-69
2024/01/11 00:53:51;;;;;;;26.85;9.43;;;-3271.60;97.20;;;;;;4991453;28;20488;-70
2024/01/11 00:56:18;;;;;;;28.30;9.45;;;-3271.50;97.10;;;;;;4994537;28;20038;-69
2024/01/11 00:58:44;;;;;;;25.67;9.85;;;-3271.50;97.30;;;;;;4991052;28;20096;-69
2024/01/11 01:01:10;;;;;;;20.77;9.18;;;-3271.50;97.40;;;;;;4996762;28;20037;-69
2024/01/11 01:03:35;;;;;;;20.33;7.63;;;-3271.40;97.20;;;;;;5002525;28;20111;-69
2024/01/11 01:06:02;;;;;;;24.58;8.90;;;-3271.40;97.40;;;;;;4995545;28;20390;-69
2024/01/11 01:08:28;;;;;;;19.05;8.45;;;-3271.50;97.50;;;;;;4996365;28;20477;-69
2024/01/11 01:10:53;;;;;;;17.73;7.47;;;-3271.30;97.40;;;;;;4995976;28;20082;-69
2024/01/11 01:13:19;;;;;;;27.92;9.35;;;-3271.40;97.60;;;;;;4992952;28;20483;-69
2024/01/11 01:15:44;;;;;;;19.42;7.50;;;-3271.50;97.80;;;;;;4997242;28;20065;-69
2024/01/11 01:18:10;;;;;;;24.58;9.90;;;-3271.60;97.80;;;;;;4997387;28;20113;-69
2024/01/11 01:20:35;;;;;;;20.00;8.20;;;-3271.60;97.80;;;;;;5001331;28;20117;-69
2024/01/11 01:23:01;;;;;;;20.75;9.13;;;-3271.60;97.60;;;;;;5000740;28;20038;-70
2024/01/11 01:25:27;;;;;;;23.83;10.02;;;-3271.60;97.70;;;;;;4997424;28;20022;-69
2024/01/11 01:27:52;;;;;;;25.20;9.13;;;-3271.60;97.70;;;;;;4983331;28;20053;-68
2024/01/11 01:30:18;;;;;;;18.58;8.18;;;-3271.60;97.60;;;;;;4992114;28;20466;-69
2024/01/11 01:32:43;;;;;;;21.60;9.02;;;-3271.60;97.80;;;;;;4995258;28;20073;-69
2024/01/11 01:35:09;;;;;;;25.85;10.05;;;-3271.60;97.80;;;;;;4994001;28;20042;-69
2024/01/11 01:37:34;;;;;;;24.23;8.98;;;-3271.60;97.70;;;;;;4990819;28;20460;-69
2024/01/11 01:40:00;;;;;;;20.95;8.20;;;-3271.60;97.80;;;;;;4991998;28;20475;-68
2024/01/11 01:42:25;;;;;;;21.65;9.93;;;-3271.60;97.80;;;;;;4991583;28;20042;-69
2024/01/11 01:44:50;;;;;;;14.60;7.82;;;-3271.60;97.70;;;;;;4993762;28;20137;-70
2024/01/11 01:47:18;;;;;;;23.27;9.57;;;-3271.70;97.80;;;;;;4993559;28;20355;-68
2024/01/11 01:49:45;;;;;;;22.17;9.70;;;-3271.70;97.70;;;;;;4997986;28;20041;-69
2024/01/11 01:52:14;;;;;;;23.48;9.52;;;-3271.70;97.80;;;;;;4998036;28;20199;-68
2024/01/11 01:54:39;;;;;;;24.90;9.73;;;-3271.70;97.70;;;;;;5002077;28;20022;-69
2024/01/11 01:57:07;;;;;;;22.90;9.30;;;-3271.70;97.70;;;;;;5001161;28;20335;-69
2024/01/11 01:59:33;;;;;;;29.15;12.25;;;-3271.80;97.80;;;;;;4992409;28;20459;-69
2024/01/11 02:01:59;;;;;;;28.05;10.02;;;-3271.70;97.60;;;;;;4999647;28;20125;-70
2024/01/11 02:04:24;;;;;;;30.85;11.25;;;-3271.70;97.60;;;;;;4990337;28;20030;-69
2024/01/11 02:06:53;;;;;;;29.35;10.73;;;-3271.70;97.70;;;;;;4997312;28;20443;-69
2024/01/11 02:09:18;;;;;;;23.92;10.88;;;-3271.80;97.80;;;;;;4990739;28;20373;-68
2024/01/11 02:11:45;;;;;;;29.10;11.38;;;-3271.70;97.60;;;;;;4990783;28;20121;-68
2024/01/11 02:14:10;;;;;;;27.35;11.00;;;-3271.70;97.60;;;;;;4990297;28;20030;-69
2024/01/11 02:16:36;;;;;;;25.13;12.13;;;-3271.80;97.80;;;;;;4994267;28;20367;-69
2024/01/11 02:19:04;;;;;;;29.23;12.00;;;-3271.70;97.50;;;;;;4994837;28;20033;-68
2024/01/11 02:21:32;;;;;;;27.48;11.45;;;-3271.60;97.40;;;;;;4994247;28;20046;-68
2024/01/11 02:24:07;;;;;;;26.13;9.48;;;-3271.60;97.60;;;;;;4998101;28;20026;-68
2024/01/11 02:26:33;;;;;;;26.98;12.35;;;-3271.60;97.60;;;;;;4996523;28;20030;-69
2024/01/11 02:28:59;;;;;;;26.15;10.80;;;-3271.60;97.70;;;;;;4995646;28;20029;-69
2024/01/11 02:31:25;;;;;;;20.17;10.55;;;-3271.60;97.50;;;;;;4997891;28;20422;-69
2024/01/11 02:33:55;;;;;;;29.05;12.50;;;-3271.50;97.50;;;;;;4998529;28;20050;-68
2024/01/11 02:36:21;;;;;;;25.25;9.80;;;-3271.50;97.50;;;;;;4997649;28;20486;-69
2024/01/11 02:38:48;;;;;;;29.13;10.00;;;-3271.50;97.50;;;;;;4994881;28;20489;-69
2024/01/11 02:41:16;;;;;;;31.15;12.18;;;-3271.50;97.50;;;;;;4997715;28;20049;-68
2024/01/11 02:43:47;;;;;;;30.75;10.30;;;-3271.60;97.70;;;;;;4993258;28;20045;-68
2024/01/11 02:46:13;;;;;;;26.92;11.43;;;-3271.60;97.60;;;;;;4996554;28;20077;-69
2024/01/11 02:48:38;;;;;;;25.92;11.25;;;-3271.60;97.50;;;;;;4994105;28;20412;-68
2024/01/11 02:51:04;;;;;;;30.25;11.93;;;-3271.60;97.60;;;;;;4998995;28;20069;-68
2024/01/11 02:53:34;;;;;;;32.53;10.65;;;-3271.60;97.60;;;;;;4994512;28;20085;-69
2024/01/11 02:55:59;;;;;;;23.65;11.68;;;-3271.70;97.60;;;;;;4998492;28;20034;-69
2024/01/11 02:58:25;;;;;;;22.25;11.23;;;-3271.40;97.30;;;;;;5001234;28;20042;-68
2024/01/11 03:00:50;;;;;;;21.40;9.68;;;-3271.50;97.40;;;;;;4999447;28;20106;-68
2024/01/11 03:03:16;;;;;;;21.08;10.05;;;-3271.50;97.40;;;;;;4994996;28;20065;-68
2024/01/11 03:05:41;;;;;;;33.22;12.85;;;-3271.50;97.50;;;;;;4997313;28;20443;-68
2024/01/11 03:08:07;;;;;;;26.92;10.90;;;-3271.50;97.50;;;;;;4998777;28;20060;-68
2024/01/11 03:10:32;;;;;;;28.98;11.82;;;-3271.60;97.60;;;;;;4998757;28;20117;-68
2024/01/11 03:12:58;;;;;;;23.48;10.75;;;-3271.60;97.50;;;;;;4992132;28;20057;-68
2024/01/11 03:15:23;;;;;;;21.95;10.55;;;-3271.60;97.50;;;;;;4993346;28;20128;-68
2024/01/11 03:17:49;;;;;;;26.55;9.73;;;-3271.60;97.40;;;;;;4993500;28;20057;-68
2024/01/11 03:20:15;;;;;;;31.30;12.43;;;-3271.60;97.60;;;;;;4999406;28;22705;-68
2024/01/11 03:22:46;;;;;;;25.98;10.55;;;-3271.60;97.50;;;;;;4997999;28;20085;-69
2024/01/11 03:25:12;;;;;;;22.92;8.85;;;-3271.70;97.60;;;;;;4995618;28;20030;-69
2024/01/11 03:27:37;;;;;;;22.60;11.10;;;-3271.70;97.40;;;;;;4996851;28;20132;-69
2024/01/11 03:30:04;;;;;;;23.60;8.63;;;-3271.60;97.40;;;;;;4997965;28;20568;-69
2024/01/11 03:32:29;;;;;;;20.95;9.07;;;-3271.50;97.40;;;;;;4998543;28;20026;-70
2024/01/11 03:34:55;;;;;;;21.90;8.40;;;-3271.60;97.60;;;;;;5001041;28;20121;-69
2024/01/11 03:37:20;;;;;;;19.35;7.30;;;-3271.60;97.50;;;;;;4996962;28;20411;-69
2024/01/11 03:39:46;;;;;;;24.10;10.40;;;-3271.60;97.50;;;;;;4998913;28;20038;-69
2024/01/11 03:42:11;;;;;;;20.77;8.85;;;-3271.70;97.80;;;;;;4996039;28;20029;-69
2024/01/11 03:44:37;;;;;;;23.10;9.20;;;-3271.80;97.70;;;;;;4996464;28;20069;-68
2024/01/11 03:47:03;;;;;;;16.65;6.60;;;-3271.90;97.70;;;;;;5002502;28;20075;-69
2024/01/11 03:49:29;;;;;;;18.10;7.35;;;-3271.90;97.70;;;;;;4999635;28;20027;-70
2024/01/11 03:51:54;;;;;;;18.40;7.45;;;-3272.00;97.90;;;;;;5003602;28;20459;-69
2024/01/11 03:54:20;;;;;;;20.60;7.43;;;-3272.00;97.70;;;;;;5000875;28;20099;-68
2024/01/11 03:56:45;;;;;;;21.42;8.23;;;-3272.00;97.60;;;;;;5004274;28;20042;-69
2024/01/11 03:59:11;;;;;;;19.98;6.60;;;-3272.00;97.70;;;;;;4998600;28;20018;-68
2024/01/11 04:01:43;;;;;;;17.70;7.40;;;-3272.10;97.70;;;;;;4998527;28;20030;-69
2024/01/11 04:04:08;;;;;;;18.45;8.32;;;-3272.10;97.70;;;;;;5005812;28;20053;-69
2024/01/11 04:06:34;;;;;;;21.50;6.72;;;-3272.10;97.60;;;;;;5001245;28;20039;-69
2024/01/11 04:08:59;;;;;;;20.85;7.82;;;-3272.20;97.70;;;;;;5002739;28;20069;-68
2024/01/11 04:11:28;;;;;;;22.95;7.97;;;-3272.20;97.70;;;;;;5001167;28;20462;-69
2024/01/11 04:13:54;;;;;;;22.48;8.77;;;-3272.20;97.80;;;;;;5001766;28;20316;-69
2024/01/11 04:16:20;;;;;;;18.98;6.95;;;-3272.20;97.70;;;;;;4999184;28;20096;-69
2024/01/11 04:18:46;;;;;;;19.40;7.57;;;-3272.30;97.80;;;;;;4997155;28;20033;-69
2024/01/11 04:21:22;;;;;;;17.95;7.70;;;-3272.30;97.90;;;;;;4999093;28;20027;-69
2024/01/11 04:23:47;;;;;;;20.30;7.85;;;-3272.40;97.80;;;;;;5002726;28;20057;-69
2024/01/11 04:26:13;;;;;;;19.05;7.05;;;-3272.40;97.90;;;;;;4994607;28;20030;-69
2024/01/11 04:28:38;;;;;;;18.70;8.95;;;-3272.50;97.90;;;;;;4992795;28;20066;-68
2024/01/11 04:31:04;;;;;;;13.35;5.32;;;-3272.40;97.80;;;;;;4992398;28;20034;-69
2024/01/11 04:33:29;;;;;;;19.65;7.07;;;-3272.50;97.90;;;;;;4996120;28;20053;-70
2024/01/11 04:35:55;;;;;;;20.13;8.05;;;-3272.50;98.00;;;;;;4998596;28;20042;-69
2024/01/11 04:38:20;;;;;;;19.60;7.35;;;-3272.50;98.00;;;;;;4977957;28;20030;-70
2024/01/11 04:40:46;;;;;;;18.00;7.88;;;-3272.60;98.00;;;;;;4996777;28;20455;-69
2024/01/11 04:43:11;;;;;;;18.33;7.45;;;-3272.60;98.10;;;;;;4994247;28;20036;-70
2024/01/11 04:45:37;;;;;;;19.00;6.07;;;-3272.60;98.00;;;;;;4989480;28;20058;-70
2024/01/11 04:48:02;;;;;;;20.25;7.43;;;-3272.60;98.00;;;;;;4973730;28;20428;-70
2024/01/11 04:50:28;;;;;;;16.67;6.35;;;-3272.60;98.00;;;;;;4994563;28;20026;-70
2024/01/11 04:52:53;;;;;;;14.43;6.85;;;-3272.60;98.00;;;;;;4998548;28;20041;-69
2024/01/11 04:55:20;;;;;;;18.00;6.45;;;-3272.60;98.10;;;;;;4999440;28;20034;-69
2024/01/11 04:57:45;;;;;;;17.60;6.40;;;-3272.60;98.10;;;;;;4999158;28;20049;-70
2024/01/11 05:00:11;;;;;;;17.90;6.72;;;-3272.70;98.10;;;;;;4998048;28;20034;-70
2024/01/11 05:02:37;;;;;;;18.33;7.30;;;-3272.70;98.20;;;;;;5003549;28;20100;-70
2024/01/11 05:05:02;;;;;;;18.48;7.20;;;-3272.70;98.20;;;;;;4993147;28;20066;-69
2024/01/11 05:07:28;;;;;;;22.92;7.60;;;-3272.70;98.10;;;;;;4998449;28;20042;-69
2024/01/11 05:09:53;;;;;;;21.45;7.65;;;-3272.70;98.20;;;;;;4993524;28;20077;-70
2024/01/11 05:12:19;;;;;;;19.00;7.90;;;-3272.70;98.30;;;;;;5006079;28;20440;-70
2024/01/11 05:14:44;;;;;;;23.30;7.28;;;-3272.70;98.30;;;;;;4992931;28;20077;-71
2024/01/11 05:17:10;;;;;;;22.42;7.60;;;-3272.70;98.30;;;;;;5001165;28;20125;-70
2024/01/11 05:19:35;;;;;;;16.63;5.82;;;-3272.80;98.40;;;;;;5002328;28;20401;-70
2024/01/11 05:22:01;;;;;;;20.02;6.32;;;-3272.70;98.40;;;;;;4995387;28;20045;-71
2024/01/11 05:24:26;;;;;;;25.20;7.05;;;-3272.80;98.40;;;;;;4996130;28;20098;-70
2024/01/11 05:26:52;;;;;;;24.50;7.47;;;-3272.80;98.40;;;;;;4999927;28;20030;-70
2024/01/11 05:29:17;;;;;;;15.65;6.90;;;-3272.80;98.50;;;;;;4999111;28;20052;-69
2024/01/11 05:31:43;;;;;;;21.60;8.45;;;-3272.80;98.50;;;;;;4997369;28;20042;-69
2024/01/11 05:34:11;;;;;;;20.85;8.20;;;-3272.90;98.60;;;;;;4996084;28;20080;-71
2024/01/11 05:36:37;;;;;;;23.50;8.25;;;-3272.90;98.50;;;;;;5000910;28;20411;-70
2024/01/11 05:39:03;;;;;;;23.23;7.93;;;-3272.90;98.60;;;;;;4998834;28;20093;-69
2024/01/11 05:41:28;;;;;;;19.77;6.88;;;-3272.90;98.60;;;;;;5001130;28;20049;-70
2024/01/11 05:43:54;;;;;;;26.80;7.75;;;-3272.90;98.60;;;;;;4994828;28;20042;-70
2024/01/11 05:46:20;;;;;;;22.90;8.55;;;-3273.00;98.70;;;;;;4997965;28;20701;-69
2024/01/11 05:48:45;;;;;;;19.90;8.10;;;-3273.00;98.80;;;;;;4999191;28;20071;-70
2024/01/11 05:51:11;;;;;;;22.00;8.52;;;-3272.90;98.60;;;;;;4995842;28;20038;-70
2024/01/11 05:53:36;;;;;;;23.58;8.60;;;-3273.00;98.70;;;;;;4998015;28;20038;-70
2024/01/11 05:56:06;;;;;;;21.60;8.13;;;-3273.00;98.80;;;;;;4995358;28;20035;-70
2024/01/11 05:58:32;;;;;;;18.83;7.43;;;-3273.00;98.80;;;;;;4997259;28;20436;-71
2024/01/11 06:00:57;;;;;;;22.35;7.45;;;-3273.00;98.70;;;;;;4978354;28;20226;-70
2024/01/11 06:03:23;;;;;;;28.13;8.52;;;-3273.00;98.70;;;;;;4990114;28;20428;-69
2024/01/11 06:05:48;;;;;;;17.17;6.85;;;-3273.00;98.80;;;;;;4999533;28;20109;-70
2024/01/11 06:08:14;;;;;;;18.42;7.55;;;-3273.10;98.80;;;;;;4996380;28;20445;-70
2024/01/11 06:10:39;;;;;;;24.35;8.07;;;-3273.10;98.70;;;;;;5000940;28;20086;-70
2024/01/11 06:13:05;;;;;;;24.95;7.63;;;-3273.00;98.80;;;;;;4997833;28;20160;-70
2024/01/11 06:15:31;;;;;;;21.05;7.57;;;-3273.10;98.80;;;;;;4995920;28;20045;-70
2024/01/11 06:17:57;;;;;;;19.20;7.28;;;-3273.00;98.90;;;;;;4991087;28;20055;-71
2024/01/11 06:20:22;;;;;;;19.95;7.85;;;-3273.10;99.00;;;;;;4996190;28;20423;-69
2024/01/11 06:22:48;;;;;;;20.10;7.82;;;-3273.10;99.00;;;;;;4994086;28;20034;-69
2024/01/11 06:25:13;;;;;;;26.88;8.18;;;-3273.10;99.10;;;;;;4996952;28;20362;-70
2024/01/11 06:27:41;;;;;;;21.65;9.40;;;-3273.10;99.10;;;;;;5000282;28;20038;-71
2024/01/11 06:30:07;;;;;;;19.88;6.68;;;-3273.10;99.10;;;;;;4986354;28;20038;-69
2024/01/11 06:32:33;;;;;;;21.05;7.88;;;-3273.10;99.20;;;;;;5001204;28;20467;-69
2024/01/11 06:34:58;;;;;;;22.08;8.68;;;-3273.10;99.20;;;;;;4997130;28;20120;-70
2024/01/11 06:37:24;;;;;;;26.77;8.43;;;-3273.10;99.20;;;;;;4992963;28;20399;-70
2024/01/11 06:39:49;;;;;;;20.50;7.07;;;-3273.10;99.30;;;;;;5001431;28;20099;-70
2024/01/11 06:42:15;;;;;;;23.08;9.90;;;-3273.10;99.30;;;;;;5000173;28;20038;-69
2024/01/11 06:44:40;;;;;;;21.42;8.00;;;-3273.20;99.40;;;;;;4971217;28;20043;-70
2024/01/11 06:47:06;;;;;;;21.55;7.68;;;-3273.20;99.40;;;;;;4994793;28;20037;-70
2024/01/11 06:49:31;;;;;;;22.42;8.18;;;-3273.10;99.30;;;;;;4995419;28;20058;-70
2024/01/11 06:51:57;;;;;;;24.83;9.52;;;-3273.10;99.40;;;;;;5000462;28;20421;-69
2024/01/11 06:54:22;;;;;;;23.50;8.80;;;-3273.20;99.50;;;;;;4996520;28;20057;-70
2024/01/11 06:56:48;;;;;;;24.35;8.75;;;-3273.10;99.50;;;;;;5003909;28;20065;-69
2024/01/11 06:59:14;;;;;;;23.35;9.15;;;-3273.20;99.60;;;;;;4999428;28;20060;-71
2024/01/11 07:01:39;;;;;;;24.27;9.35;;;-3273.30;99.60;;;;;;4989913;28;20070;-72
2024/01/11 07:04:05;;;;;;;21.25;7.75;;;-3273.30;99.70;;;;;;5001026;28;20491;-69
2024/01/11 07:06:30;;;;;;;24.00;7.88;;;-3273.20;99.50;;;;;;5000542;28;20037;-69
2024/01/11 07:08:56;;;;;;;27.17;7.32;;;-3273.30;99.60;;;;;;4999936;28;20049;-69
2024/01/11 07:11:21;;;;;;;23.98;7.88;;;-3273.20;99.60;;;;;;5000476;28;20032;-69
2024/01/11 07:13:47;;;;;;;20.98;7.97;;;-3273.30;99.70;;;;;;4995026;28;20022;-69
2024/01/11 07:16:12;;;;;;;22.38;8.18;;;-3273.30;99.70;;;;;;5002889;28;20114;-69
2024/01/11 07:18:38;;;;;;;23.65;8.55;;;-3273.40;99.80;;;;;;5001089;28;20172;-69
2024/01/11 07:21:03;;;;;;;23.77;8.20;;;-3273.40;99.80;;;;;;4996858;28;20094;-70
2024/01/11 07:23:29;;;;;;;24.15;8.98;;;-3273.50;99.80;;;;;;4999762;28;20121;-69
2024/01/11 07:25:54;;;;;;;25.67;8.57;;;-3273.50;99.80;;;;;;5003594;28;20346;-69
2024/01/11 07:28:24;;;;;;;24.58;8.35;;;-3273.50;99.80;;;;;;4988532;28;20459;-69
2024/01/11 07:30:50;;;;;;;23.38;7.95;;;-3273.60;99.80;;;;;;4998781;28;20030;-70
2024/01/11 07:33:16;;;;;;;22.05;7.53;;;-3273.60;99.80;;;;;;5007339;28;20319;-69
2024/01/11 07:35:41;;;;;;;24.20;8.30;;;-3273.60;99.90;;;;;;5003161;28;20101;-69
2024/01/11 07:38:07;;;;;;;21.13;7.22;;;-3273.60;99.90;;;;;;5003646;28;20084;-69
2024/01/11 07:40:32;;;;;;;19.92;7.22;;;-3273.70;99.90;;;;;;5006294;28;20170;-69
2024/01/11 07:42:58;;;;;;;18.60;7.28;;;-3273.70;99.90;;;;;;5000074;28;20270;-69
2024/01/11 07:45:23;;;;;;;21.35;7.03;;;-3273.80;99.90;;;;;;5000657;28;20081;-69
2024/01/11 07:47:49;;;;;;;22.45;7.15;;;-3273.80;99.90;;;;;;4997377;28;20038;-69
2024/01/11 07:50:14;;;;;;;18.30;6.25;;;-3273.80;99.90;;;;;;5003603;28;20034;-69
2024/01/11 07:52:43;;;;;;;22.90;6.43;;;-3273.90;99.90;;;;;;5007071;28;20105;-69
2024/01/11 07:55:11;;;;;;;16.85;7.40;;;-3273.90;99.90;;;;;;5003090;28;20326;-69
2024/01/11 07:57:40;;;;;;;17.88;6.50;;;-3273.90;99.90;;;;;;5006576;28;20518;-69
2024/01/11 08:00:06;;;;;;;14.23;7.05;;;-3273.90;99.90;;;;;;4993566;28;20034;-69
2024/01/11 08:02:33;;;;;;;17.85;6.90;;;-3273.90;99.90;;;;;;5009095;28;20029;-69
2024/01/11 08:04:59;;;;;;;22.30;7.32;;;-3273.90;99.90;;;;;;5002264;28;20041;-69
2024/01/11 08:07:25;;;;;;;19.42;6.57;;;-3274.00;99.90;;;;;;4997191;28;20037;-70
2024/01/11 08:09:51;;;;;;;22.85;7.50;;;-3273.90;99.90;;;;;;4995731;28;20049;-69
2024/01/11 08:12:16;;;;;;;22.88;6.72;;;-3274.00;99.90;;;;;;4998097;28;20095;-69
2024/01/11 08:14:42;;;;;;;21.33;7.50;;;-3274.00;99.90;;;;;;4995920;28;20033;-70
2024/01/11 08:17:08;;;;;;;22.15;9.10;;;-3274.00;99.90;;;;;;4998030;28;20042;-69
2024/01/11 08:19:34;;;;;;;13.27;6.15;;;-3274.00;99.90;;;;;;5005854;28;20112;-69
2024/01/11 08:22:00;;;;;;;19.08;6.10;;;-3274.00;99.90;;;;;;5000506;28;20041;-69
2024/01/11 08:24:25;;;;;;;20.48;6.85;;;-3274.10;99.90;;;;;;5000342;28;21196;-69
2024/01/11 08:26:51;;;;;;;21.90;7.22;;;-3274.20;99.90;;;;;;5002149;28;20049;-69
2024/01/11 08:29:19;;;;;;;24.08;8.10;;;-3274.20;99.90;;;;;;4990674;28;20144;-70
2024/01/11 08:31:48;;;;;;;24.52;8.18;;;-3274.10;99.90;;;;;;4995828;28;20088;-69
2024/01/11 08:34:13;;;;;;;24.70;8.98;;;-3274.20;99.90;;;;;;5003606;28;20046;-69
2024/01/11 08:36:39;;;;;;;20.65;7.15;;;-3274.20;99.90;;;;;;4999790;28;20030;-69
2024/01/11 08:39:05;;;;;;;22.98;7.80;;;-3274.10;99.90;;;;;;5008748;28;20316;-71
2024/01/11 08:41:31;;;;;;;22.63;7.13;;;-3274.10;99.90;;;;;;4992427;28;20259;-69
2024/01/11 08:43:57;;;;;;;22.63;7.80;;;-3274.10;99.90;;;;;;4993086;28;20044;-69
2024/01/11 08:46:26;;;;;;;20.75;7.65;;;-3274.10;99.90;;;;;;5004066;28;20118;-69
2024/01/11 08:48:53;;;;;;;28.00;8.13;;;-3274.10;99.90;;;;;;5002305;28;20033;-70
2024/01/11 08:51:19;;;;;;;20.23;7.82;;;-3274.10;99.90;;;;;;5007849;28;20457;-70
2024/01/11 08:53:44;;;;;;;25.38;9.15;;;-3274.10;99.90;;;;;;5009201;28;20074;-69
2024/01/11 08:56:10;;;;;;;23.17;8.30;;;-3274.10;99.90;;;;;;5003494;28;20095;-69
2024/01/11 08:58:36;;;;;;;26.85;8.70;;;-3274.10;99.90;;;;;;5001741;28;20038;-70
2024/01/11 09:01:02;;;;;;;23.10;7.95;;;-3274.10;99.90;;;;;;4999603;28;20046;-69
2024/01/11 09:03:28;;;;;;;24.02;9.40;;;-3274.10;99.90;;;;;;4998867;28;20599;-70
2024/01/11 09:05:56;;;;;;;23.75;8.88;;;-3274.10;99.90;;;;;;4994541;28;20220;-69
2024/01/11 09:08:22;;;;;;;29.92;9.05;;;-3274.20;99.90;;;;;;4999915;28;20149;-69
2024/01/11 09:10:48;;;;;;;23.80;8.65;;;-3274.20;99.90;;;;;;5002204;28;20041;-69
2024/01/11 09:13:15;;;;;;;23.00;7.30;;;-3274.10;99.90;;;;;;4999096;28;20102;-69
2024/01/11 09:15:41;;;;;;;24.50;7.95;;;-3274.20;99.90;;;;;;5003754;28;20034;-69
2024/01/11 09:18:06;;;;;;;28.92;8.70;;;-3274.20;99.90;;;;;;5004585;28;20036;-70
2024/01/11 09:20:32;;;;;;;24.88;8.52;;;-3274.10;99.90;;;;;;5000219;28;20038;-69
2024/01/11 09:22:57;;;;;;;21.40;8.13;;;-3274.20;99.90;;;;;;4998342;28;20100;-70
2024/01/11 09:25:23;;;;;;;20.52;7.30;;;-3274.20;99.90;;;;;;4993202;28;20030;-70
2024/01/11 09:27:49;;;;;;;23.73;7.28;;;-3274.30;99.90;;;;;;5001212;28;20293;-69
2024/01/11 09:30:15;;;;;;;27.10;10.63;;;-3274.30;99.90;;;;;;4997664;28;20467;-69
2024/01/11 09:32:40;;;;;;;21.75;7.95;;;-3274.30;99.90;;;;;;4994552;28;20117;-69
2024/01/11 09:35:06;;;;;;;18.75;8.18;;;-3274.30;99.90;;;;;;4995285;28;20173;-69
2024/01/11 09:37:32;;;;;;;23.52;6.35;;;-3274.30;99.90;;;;;;4997437;28;20439;-70
2024/01/11 09:39:57;;;;;;;20.52;7.78;;;-3274.30;99.90;;;;;;5001428;28;20041;-69
2024/01/11 09:42:22;;;;;;;20.98;6.72;;;-3274.40;99.90;;;;;;4993806;28;20101;-69
2024/01/11 09:44:48;;;;;;;28.27;7.75;;;-3274.50;99.90;;;;;;4989747;28;20135;-69
2024/01/11 09:47:18;;;;;;;21.58;7.65;;;-3274.50;99.90;;;;;;4997520;28;20156;-70
2024/01/11 09:49:47;;;;;;;23.92;8.27;;;-3274.50;99.90;;;;;;4993598;28;20094;-69
2024/01/11 09:52:15;;;;;;;16.83;6.57;;;-3274.60;99.90;;;;;;4998708;28;20121;-69
2024/01/11 09:54:41;;;;;;;22.23;8.18;;;-3274.60;99.80;;;;;;4992934;28;20039;-69
2024/01/11 09:57:09;;;;;;;24.40;8.45;;;-3274.60;99.80;;;;;;4995913;28;20462;-69
2024/01/11 09:59:35;;;;;;;22.33;7.38;;;-3274.60;99.80;;;;;;4996607;28;20438;-71
2024/01/11 10:02:02;;;;;;;26.58;8.00;;;-3274.60;99.80;;;;;;4995503;28;20061;-69
2024/01/11 10:04:28;;;;;;;25.73;8.80;;;-3274.60;99.60;;;;;;4993569;28;20446;-69
2024/01/11 10:06:54;;;;;;;22.58;8.68;;;-3274.60;99.60;;;;;;4998663;28;20034;-69
2024/01/11 10:09:20;;;;;;;28.05;8.48;;;-3274.50;99.60;;;;;;4989873;28;20440;-69
2024/01/11 10:11:46;;;;;;;23.55;8.80;;;-3274.50;99.60;;;;;;4995009;28;20041;-70
2024/01/11 10:14:14;;;;;;;21.80;9.18;;;-3274.50;99.70;;;;;;4996892;28;20035;-70
2024/01/11 10:16:43;;;;;;;21.30;8.70;;;-3274.60;99.60;;;;;;4991190;28;20074;-69
2024/01/11 10:19:10;;;;;;;21.92;7.68;;;-3274.60;99.70;;;;;;4992660;28;20041;-69
2024/01/11 10:21:39;;;;;;;19.92;7.28;;;-3274.60;99.60;;;;;;4998542;28;20030;-69
2024/01/11 10:24:04;;;;;;;23.55;7.97;;;-3274.70;99.70;;;;;;4996098;28;20133;-69
2024/01/11 10:26:30;;;;;;;23.08;8.07;;;-3274.70;99.70;;;;;;4999165;28;20121;-69
2024/01/11 10:28:59;;;;;;;19.23;7.55;;;-3274.70;99.50;;;;;;4996291;28;20457;-70
2024/01/11 10:31:28;;;;;;;22.48;7.50;;;-3274.80;99.60;;;;;;5000766;28;20053;-69
2024/01/11 10:33:54;;;;;;;22.38;7.60;;;-3274.80;99.40;;;;;;4999170;28;20438;-69
2024/01/11 10:36:19;;;;;;;24.38;8.52;;;-3274.80;99.40;;;;;;5000579;28;20026;-69
2024/01/11 10:38:47;;;;;;;18.25;7.25;;;-3274.80;99.40;;;;;;5001647;28;20060;-69
2024/01/11 10:41:14;;;;;;;16.80;5.97;;;-3274.80;99.30;;;;;;4996081;28;20088;-70
2024/01/11 10:43:41;;;;;;;17.50;6.78;;;-3274.70;99.40;;;;;;4994642;28;20040;-69
2024/01/11 10:46:09;;;;;;;22.40;7.65;;;-3274.70;99.30;;;;;;4992888;28;20157;-69
2024/01/11 10:48:39;;;;;;;19.45;7.32;;;-3274.70;99.40;;;;;;5000144;28;20044;-69
2024/01/11 10:51:09;;;;;;;28.05;9.77;;;-3274.80;99.40;;;;;;4981959;28;20124;-69
2024/01/11 10:53:45;;;;;;;22.15;8.18;;;-3274.80;99.40;;;;;;5004155;28;20102;-70
2024/01/11 10:56:12;;;;;;;25.23;8.90;;;-3274.80;99.40;;;;;;4998612;28;20435;-69
2024/01/11 10:58:41;;;;;;;24.70;7.57;;;-3274.80;99.40;;;;;;4994892;28;20451;-70
2024/01/11 11:01:08;;;;;;;26.50;9.50;;;-3274.80;99.40;;;;;;5001084;28;20075;-69
2024/01/11 11:03:35;;;;;;;21.02;7.70;;;-3274.90;99.50;;;;;;4998747;28;20038;-69
2024/01/11 11:06:01;;;;;;;20.70;7.03;;;-3275.00;99.60;;;;;;4999726;28;20033;-69
2024/01/11 11:08:27;;;;;;;20.33;6.80;;;-3275.00;99.50;;;;;;4997714;28;20038;-69
2024/01/11 11:10:57;;;;;;;28.63;9.50;;;-3275.10;99.50;;;;;;4996009;28;20520;-70
2024/01/11 11:13:23;;;;;;;23.40;8.83;;;-3275.10;99.40;;;;;;4994339;28;20044;-69
2024/01/11 11:15:49;;;;;;;22.85;7.85;;;-3275.10;99.30;;;;;;5001560;28;20025;-70
2024/01/11 11:18:16;;;;;;;24.95;8.43;;;-3275.20;99.40;;;;;;4997656;28;20141;-69
2024/01/11 11:20:42;;;;;;;19.73;7.78;;;-3275.20;99.40;;;;;;4990962;28;20038;-68
2024/01/11 11:23:15;;;;;;;24.30;8.60;;;-3275.30;99.50;;;;;;4996170;28;20049;-69
2024/01/11 11:25:41;;;;;;;20.65;7.80;;;-3275.30;99.50;;;;;;4998568;28;20096;-68
2024/01/11 11:28:07;;;;;;;22.52;9.15;;;-3275.40;99.50;;;;;;4993420;28;20076;-69
2024/01/11 11:30:38;;;;;;;22.92;8.15;;;-3275.40;99.40;;;;;;4993933;28;20408;-69
2024/01/11 11:33:20;;;;;;;;;;;-3275.40;99.30;;;;;;4996404;28;20022;-71
2024/01/11 11:35:46;;;;;;;24.38;8.23;;;-3275.40;99.40;;;;;;4994596;28;19914;-69
2024/01/11 11:38:23;;;;;;;25.77;8.10;;;-3275.30;99.30;;;;;;4996642;28;20423;-69
2024/01/11 11:40:51;;;;;;;19.77;8.00;;;-3275.40;99.50;;;;;;5001779;28;20122;-69
2024/01/11 11:43:17;;;;;;;20.77;7.57;;;-3275.40;99.30;;;;;;4997536;28;20689;-70
2024/01/11 11:45:44;;;;;;;20.27;7.65;;;-3275.50;99.40;;;;;;4994774;28;20057;-69
2024/01/11 11:48:29;;;;;;;20.42;7.25;;;-3275.40;99.30;;;;;;5002779;28;20049;-69
2024/01/11 11:51:07;;;;;;;17.58;7.13;;;-3275.50;99.30;;;;;;4997309;28;20469;-68
2024/01/11 11:53:33;;;;;;;18.77;7.00;;;-3275.50;99.30;;;;;;4980127;28;20033;-71
2024/01/11 11:56:00;;;;;;;20.88;8.68;;;-3275.50;99.30;;;;;;4995869;28;20045;-68
2024/01/11 11:58:27;;;;;;;16.83;6.30;;;-3275.50;99.30;;;;;;4993822;28;20034;-69
2024/01/11 12:00:53;;;;;;;18.67;7.50;;;-3275.60;99.40;;;;;;4976644;28;20033;-68
2024/01/11 12:03:19;;;;;;;25.15;8.20;;;-3275.50;99.30;;;;;;4996216;28;20177;-69